Time;durP1;ratioP1;P1;durP2;ratioP2;P2;SDS_P1;SDS_P2;PMS_P1;PMS_P2;Temp;Humidity;BMP_temperature;BMP_pressure;BME280_temperature;BME280_humidity;BME280_pressure;Samples;Min_cycle;Max_cycle;Signal;HPM_P1;HPM_P2
2023/05/20 00:00:05;;;;;;;6.55;2.28;;;;;;;12.85;58.80;102291.72;5029737;28;20027;-75
2023/05/20 00:02:30;;;;;;;3.95;2.10;;;;;;;12.82;58.99;102288.28;5034688;28;20406;-76
2023/05/20 00:04:56;;;;;;;4.75;2.13;;;;;;;12.81;59.09;102290.00;5033914;28;20091;-76
2023/05/20 00:07:21;;;;;;;5.53;2.08;;;;;;;12.77;59.36;102293.56;5033779;28;20079;-77
2023/05/20 00:09:46;;;;;;;6.75;2.17;;;;;;;12.76;59.14;102286.63;5030602;28;20038;-76
2023/05/20 00:12:12;;;;;;;4.72;2.25;;;;;;;12.75;59.98;102290.09;5033908;28;20418;-75
2023/05/20 00:14:37;;;;;;;4.85;2.33;;;;;;;12.71;59.95;102281.44;5033286;28;20026;-75
2023/05/20 00:17:02;;;;;;;7.90;2.20;;;;;;;12.69;59.51;102279.72;5033720;28;20505;-75
2023/05/20 00:19:27;;;;;;;6.50;2.30;;;;;;;12.66;60.03;102282.38;5032090;28;20029;-76
2023/05/20 00:21:53;;;;;;;7.40;2.35;;;;;;;12.63;60.37;102285.03;5034162;28;20048;-76
2023/05/20 00:24:18;;;;;;;3.60;2.20;;;;;;;12.60;60.30;102297.22;5031600;28;20030;-76
2023/05/20 00:26:43;;;;;;;5.60;2.40;;;;;;;12.58;60.70;102290.28;5032622;28;20029;-76
2023/05/20 00:29:08;;;;;;;5.30;2.53;;;;;;;12.52;60.72;102282.53;5032245;28;20025;-76
2023/05/20 00:31:34;;;;;;;3.92;2.05;;;;;;;12.51;60.77;102286.88;5029839;28;20025;-75
2023/05/20 00:33:59;;;;;;;3.95;2.10;;;;;;;12.47;60.85;102279.94;5031315;28;20488;-76
2023/05/20 00:36:25;;;;;;;7.53;2.58;;;;;;;12.44;61.12;102283.47;5032959;28;20380;-75
2023/05/20 00:38:50;;;;;;;6.35;2.58;;;;;;;12.43;60.87;102278.28;5032197;28;20074;-75
2023/05/20 00:41:15;;;;;;;5.03;2.50;;;;;;;12.40;61.48;102283.53;5032046;28;20049;-76
2023/05/20 00:43:41;;;;;;;6.78;2.50;;;;;;;12.37;61.94;102283.53;5032316;28;20021;-76
2023/05/20 00:46:06;;;;;;;6.70;2.40;;;;;;;12.35;61.78;102274.88;5033843;28;20497;-75
2023/05/20 00:48:42;;;;;;;6.05;2.55;;;;;;;12.33;60.64;102276.63;5033331;28;20040;-75
2023/05/20 00:51:08;;;;;;;4.95;2.22;;;;;;;12.27;62.15;102273.22;5032950;28;20025;-76
2023/05/20 00:53:35;;;;;;;5.15;2.20;;;;;;;12.25;62.00;102280.19;5033789;28;20041;-75
2023/05/20 00:56:01;;;;;;;6.95;2.70;;;;;;;12.22;62.20;102275.00;5034761;28;20033;-76
2023/05/20 00:58:26;;;;;;;9.35;2.60;;;;;;;12.21;62.16;102273.25;5032712;28;20033;-75
2023/05/20 01:00:52;;;;;;;5.82;2.30;;;;;;;12.18;62.44;102272.44;5032873;28;20083;-76
2023/05/20 01:03:17;;;;;;;6.20;2.30;;;;;;;12.16;62.39;102275.03;5032855;28;20029;-75
2023/05/20 01:05:42;;;;;;;5.18;2.50;;;;;;;12.11;62.83;102274.25;5033591;28;20499;-75
2023/05/20 01:08:08;;;;;;;5.95;3.05;;;;;;;12.09;62.60;102269.03;5032624;28;20045;-75
2023/05/20 01:10:37;;;;;;;5.05;2.33;;;;;;;12.08;62.98;102272.50;5033475;28;20177;-76
2023/05/20 01:13:08;;;;;;;4.32;2.40;;;;;;;12.05;62.86;102276.88;5034153;28;20070;-75
2023/05/20 01:15:34;;;;;;;6.07;2.25;;;;;;;12.02;63.18;102272.56;5032074;28;20051;-75
2023/05/20 01:18:01;;;;;;;5.05;2.47;;;;;;;12.01;62.91;102267.34;5030626;28;20018;-76
2023/05/20 01:20:31;;;;;;;5.43;2.38;;;;;;;11.98;63.31;102266.50;5030464;28;20377;-75
2023/05/20 01:22:56;;;;;;;6.50;2.70;;;;;;;11.96;63.34;102265.59;5031224;28;20488;-75
2023/05/20 01:25:23;;;;;;;3.63;2.13;;;;;;;11.95;63.64;102271.72;5031176;28;20051;-76
2023/05/20 01:27:50;;;;;;;5.55;2.35;;;;;;;11.94;63.60;102266.50;5029829;28;20028;-75
2023/05/20 01:30:15;;;;;;;4.53;2.40;;;;;;;11.91;63.81;102259.59;5032215;28;20476;-75
2023/05/20 01:32:47;;;;;;;4.75;2.63;;;;;;;11.90;63.56;102262.19;5030629;28;20029;-75
2023/05/20 01:35:14;;;;;;;4.22;2.17;;;;;;;11.86;63.65;102258.75;5030096;28;20021;-75
2023/05/20 01:37:40;;;;;;;6.40;2.67;;;;;;;11.84;63.92;102257.91;5029725;28;20021;-75
2023/05/20 01:40:11;;;;;;;6.03;2.47;;;;;;;11.82;63.67;102254.44;5031423;28;20499;-75
2023/05/20 01:42:38;;;;;;;5.20;2.45;;;;;;;11.81;64.11;102250.09;5030095;28;20029;-75
2023/05/20 01:45:03;;;;;;;6.70;2.50;;;;;;;11.78;64.26;102247.53;5031156;28;20029;-75
2023/05/20 01:47:30;;;;;;;6.78;2.72;;;;;;;11.76;64.23;102244.06;5031162;28;20481;-75
2023/05/20 01:49:55;;;;;;;5.72;2.97;;;;;;;11.74;64.59;102245.81;5030328;28;20119;-76
2023/05/20 01:52:21;;;;;;;5.40;2.78;;;;;;;11.69;64.70;102251.94;5031761;28;20480;-76
2023/05/20 01:54:55;;;;;;;5.20;2.53;;;;;;;11.67;64.75;102251.06;5031674;28;20037;-76
2023/05/20 01:57:21;;;;;;;5.05;2.30;;;;;;;11.64;64.96;102250.25;5032114;28;20021;-76
2023/05/20 01:59:47;;;;;;;6.43;2.78;;;;;;;11.63;65.00;102254.56;5029606;28;20039;-76
2023/05/20 02:02:13;;;;;;;5.03;2.67;;;;;;;11.60;65.21;102251.13;5028448;28;20393;-76
2023/05/20 02:04:38;;;;;;;8.05;2.53;;;;;;;11.58;65.51;102247.66;5029827;28;20029;-75
2023/05/20 02:07:04;;;;;;;5.05;2.65;;;;;;;11.56;65.35;102246.81;5031482;28;20044;-75
2023/05/20 02:09:29;;;;;;;6.80;2.60;;;;;;;11.53;65.58;102247.72;5031635;28;20040;-76
2023/05/20 02:11:55;;;;;;;5.45;2.53;;;;;;;11.51;65.61;102241.66;5030771;28;20052;-75
2023/05/20 02:14:20;;;;;;;5.40;2.60;;;;;;;11.47;66.01;102243.41;5029588;28;20064;-75
2023/05/20 02:16:46;;;;;;;5.82;2.83;;;;;;;11.46;66.10;102243.41;5031451;28;20510;-75
2023/05/20 02:19:12;;;;;;;5.93;2.70;;;;;;;11.45;66.24;102237.34;5029517;28;20092;-75
2023/05/20 02:21:41;;;;;;;5.93;2.90;;;;;;;11.44;66.11;102242.56;5029925;28;20033;-76
2023/05/20 02:24:07;;;;;;;6.45;2.83;;;;;;;11.42;66.51;102241.72;5028332;28;20040;-75
2023/05/20 02:26:33;;;;;;;8.43;2.85;;;;;;;11.38;66.64;102239.13;5030230;28;20472;-75
2023/05/20 02:28:59;;;;;;;4.38;2.70;;;;;;;11.38;66.71;102236.53;5031706;28;20033;-76
2023/05/20 02:31:24;;;;;;;6.03;2.78;;;;;;;11.37;66.92;102237.41;5030317;28;20026;-75
2023/05/20 02:33:50;;;;;;;5.18;2.95;;;;;;;11.36;66.79;102235.66;5031063;28;20040;-75
2023/05/20 02:36:16;;;;;;;8.32;2.90;;;;;;;11.35;66.85;102227.88;5031195;28;20417;-76
2023/05/20 02:38:41;;;;;;;5.10;3.00;;;;;;;11.34;67.30;102234.81;5031637;28;20449;-76
2023/05/20 02:41:06;;;;;;;6.45;2.80;;;;;;;11.33;67.34;102240.88;5029677;28;20041;-76
2023/05/20 02:43:32;;;;;;;5.95;3.10;;;;;;;11.33;67.39;102238.28;5031795;28;20120;-75
2023/05/20 02:45:57;;;;;;;3.78;2.50;;;;;;;11.32;67.33;102244.38;5031667;28;20116;-76
2023/05/20 02:48:23;;;;;;;4.68;2.58;;;;;;;11.31;67.73;102239.19;5031443;28;20055;-76
2023/05/20 02:50:48;;;;;;;7.38;2.90;;;;;;;11.28;67.71;102234.84;5030661;28;20487;-75
2023/05/20 02:53:14;;;;;;;7.18;2.85;;;;;;;11.26;68.14;102234.00;5032148;28;20018;-75
2023/05/20 02:55:39;;;;;;;5.88;2.80;;;;;;;11.23;68.07;102234.88;5032279;28;20025;-76
2023/05/20 02:58:05;;;;;;;5.78;2.70;;;;;;;11.22;68.00;102227.06;5031294;28;20461;-75
2023/05/20 03:00:30;;;;;;;5.00;2.80;;;;;;;11.20;68.09;102229.66;5030174;28;20025;-76
2023/05/20 03:02:57;;;;;;;4.72;2.83;;;;;;;11.20;68.16;102234.03;5031028;28;20108;-75
2023/05/20 03:05:23;;;;;;;7.50;3.08;;;;;;;11.18;68.01;102227.97;5031495;28;20072;-75
2023/05/20 03:07:48;;;;;;;4.82;2.63;;;;;;;11.17;68.36;102228.84;5030920;28;20064;-75
2023/05/20 03:10:14;;;;;;;5.32;2.78;;;;;;;11.13;68.72;102222.78;5030689;28;20025;-75
2023/05/20 03:12:40;;;;;;;6.35;2.55;;;;;;;11.11;68.65;102223.66;5030687;28;20026;-75
2023/05/20 03:15:06;;;;;;;6.03;2.60;;;;;;;11.08;68.66;102217.63;5030427;28;20028;-75
2023/05/20 03:17:31;;;;;;;5.32;2.80;;;;;;;11.07;68.76;102220.19;5029138;28;20033;-75
2023/05/20 03:19:56;;;;;;;6.60;3.10;;;;;;;11.04;68.94;102226.31;5030878;28;21864;-76
2023/05/20 03:22:22;;;;;;;5.57;2.95;;;;;;;11.02;68.95;102225.44;5030329;28;20068;-75
2023/05/20 03:24:47;;;;;;;3.75;2.25;;;;;;;11.00;69.36;102221.97;5030168;28;20112;-75
2023/05/20 03:27:13;;;;;;;6.60;2.70;;;;;;;11.00;69.35;102228.94;5030402;28;20021;-76
2023/05/20 03:29:38;;;;;;;6.57;2.60;;;;;;;10.98;69.23;102231.53;5029592;28;20029;-75
2023/05/20 03:32:03;;;;;;;7.68;3.13;;;;;;;10.98;69.24;102222.88;5029007;28;20025;-75
2023/05/20 03:34:29;;;;;;;4.07;2.47;;;;;;;10.95;69.50;102226.34;5029849;28;20029;-75
2023/05/20 03:36:56;;;;;;;4.50;2.70;;;;;;;10.92;69.48;102232.44;5031415;28;20029;-75
2023/05/20 03:39:21;;;;;;;5.03;2.90;;;;;;;10.91;69.50;102237.66;5034546;28;20036;-75
2023/05/20 03:41:46;;;;;;;5.35;2.70;;;;;;;10.89;69.56;102236.81;5032033;28;20037;-75
2023/05/20 03:44:12;;;;;;;9.48;2.83;;;;;;;10.88;69.59;102232.47;5033897;28;20040;-75
2023/05/20 03:46:37;;;;;;;6.30;3.17;;;;;;;10.86;69.57;102223.78;5032135;28;20473;-75
2023/05/20 03:49:02;;;;;;;6.82;3.20;;;;;;;10.83;69.76;102234.22;5033839;28;20037;-75
2023/05/20 03:51:28;;;;;;;5.53;2.92;;;;;;;10.82;70.11;102232.47;5034772;28;20045;-75
2023/05/20 03:53:53;;;;;;;5.28;2.90;;;;;;;10.78;70.06;102229.88;5033088;28;20354;-75
2023/05/20 03:56:18;;;;;;;7.22;2.80;;;;;;;10.76;70.27;102233.38;5032758;28;20029;-75
2023/05/20 03:58:44;;;;;;;4.85;2.88;;;;;;;10.74;70.50;102235.13;5032711;28;20033;-75
2023/05/20 04:01:12;;;;;;;4.82;2.83;;;;;;;10.73;70.52;102234.25;5033954;28;20031;-75
2023/05/20 04:03:37;;;;;;;5.05;2.72;;;;;;;10.73;70.62;102228.19;5033166;28;20032;-75
2023/05/20 04:06:02;;;;;;;5.25;2.88;;;;;;;10.72;70.92;102227.31;5032992;28;20392;-75
2023/05/20 04:08:28;;;;;;;5.40;3.05;;;;;;;10.72;70.64;102221.25;5033020;28;20030;-76
2023/05/20 04:10:56;;;;;;;7.63;3.15;;;;;;;10.72;70.39;102227.31;5033280;28;20041;-75
2023/05/20 04:13:24;;;;;;;8.85;2.90;;;;;;;10.72;71.00;102216.91;5033815;28;20030;-76
2023/05/20 04:15:51;;;;;;;4.63;2.97;;;;;;;10.73;71.11;102221.25;5033268;28;20029;-75
2023/05/20 04:18:17;;;;;;;5.95;2.97;;;;;;;10.73;71.34;102229.06;5033610;28;20472;-75
2023/05/20 04:20:42;;;;;;;5.88;2.88;;;;;;;10.72;71.24;102222.13;5033017;28;20033;-75
2023/05/20 04:23:08;;;;;;;6.47;3.25;;;;;;;10.72;71.59;102229.06;5032285;28;20033;-75
2023/05/20 04:25:34;;;;;;;6.13;2.90;;;;;;;10.73;71.64;102229.06;5031933;28;20029;-75
2023/05/20 04:28:00;;;;;;;5.53;3.20;;;;;;;10.77;71.55;102235.97;5031485;28;20100;-75
2023/05/20 04:30:25;;;;;;;5.05;3.38;;;;;;;10.80;71.59;102231.63;5031860;28;20041;-75
2023/05/20 04:32:51;;;;;;;6.32;3.25;;;;;;;10.81;71.53;102231.63;5033375;28;20025;-75
2023/05/20 04:35:17;;;;;;;6.25;3.38;;;;;;;10.83;71.91;102240.31;5030369;28;20399;-75
2023/05/20 04:37:49;;;;;;;6.30;3.17;;;;;;;10.87;71.83;102241.16;5030968;28;20025;-75
2023/05/20 04:40:15;;;;;;;7.43;2.97;;;;;;;10.90;71.88;102241.13;5032546;28;20063;-75
2023/05/20 04:42:42;;;;;;;5.35;3.22;;;;;;;10.94;72.14;102235.03;5032438;28;20465;-76
2023/05/20 04:45:07;;;;;;;5.88;3.30;;;;;;;10.95;72.24;102239.34;5033404;28;20022;-75
2023/05/20 04:47:37;;;;;;;6.25;3.05;;;;;;;10.95;72.34;102239.34;5033075;28;20102;-75
2023/05/20 04:50:04;;;;;;;8.82;3.38;;;;;;;10.99;72.47;102230.66;5032480;28;20099;-76
2023/05/20 04:52:29;;;;;;;6.20;3.53;;;;;;;11.02;72.59;102234.97;5034040;28;20046;-75
2023/05/20 04:54:57;;;;;;;5.47;3.50;;;;;;;11.04;72.49;102228.03;5033699;28;20033;-75
2023/05/20 04:57:22;;;;;;;12.52;4.60;;;;;;;11.06;73.07;102232.38;5032278;28;20017;-75
2023/05/20 04:59:47;;;;;;;6.47;3.55;;;;;;;11.10;72.48;102229.75;5033411;28;20095;-75
2023/05/20 05:02:13;;;;;;;6.05;3.58;;;;;;;11.15;72.52;102230.56;5032158;28;20033;-75
2023/05/20 05:04:38;;;;;;;7.75;3.50;;;;;;;11.19;72.82;102232.31;5032796;28;20021;-75
2023/05/20 05:07:04;;;;;;;5.90;3.20;;;;;;;11.23;72.85;102228.81;5033568;28;20480;-75
2023/05/20 05:09:29;;;;;;;8.35;3.42;;;;;;;11.29;72.89;102233.97;5031684;28;20025;-75
2023/05/20 05:11:54;;;;;;;6.95;3.80;;;;;;;11.32;72.64;102223.53;5029686;28;20160;-75
2023/05/20 05:14:20;;;;;;;5.63;3.35;;;;;;;11.38;72.11;102218.28;5031735;28;20029;-75
2023/05/20 05:16:45;;;;;;;5.70;3.17;;;;;;;11.45;73.12;102218.22;5032052;28;20029;-75
2023/05/20 05:19:12;;;;;;;6.45;3.28;;;;;;;11.50;73.24;102217.34;5031941;28;20029;-76
2023/05/20 05:21:37;;;;;;;7.85;3.53;;;;;;;11.57;73.26;102218.16;5031580;28;20103;-75
2023/05/20 05:24:02;;;;;;;6.53;3.42;;;;;;;11.65;73.10;102213.72;5031345;28;20060;-75
2023/05/20 05:26:28;;;;;;;4.72;3.20;;;;;;;11.73;72.37;102212.81;5030415;28;20033;-75
2023/05/20 05:28:54;;;;;;;6.93;3.20;;;;;;;11.80;72.62;102217.97;5031715;28;20025;-75
2023/05/20 05:31:19;;;;;;;8.77;3.75;;;;;;;11.91;72.97;102211.78;5032223;28;20079;-75
2023/05/20 05:33:44;;;;;;;5.80;3.70;;;;;;;11.97;72.16;102217.78;5031355;28;20483;-75
2023/05/20 05:36:09;;;;;;;5.60;3.22;;;;;;;12.04;72.00;102215.16;5030145;28;20021;-76
2023/05/20 05:38:35;;;;;;;4.90;2.95;;;;;;;12.12;72.23;102215.97;5032203;28;20033;-75
2023/05/20 05:41:00;;;;;;;5.32;3.00;;;;;;;12.19;71.26;102216.78;5030929;28;20535;-75
2023/05/20 05:43:26;;;;;;;6.38;3.00;;;;;;;12.27;71.83;102212.31;5030405;28;20036;-75
2023/05/20 05:45:52;;;;;;;6.60;3.17;;;;;;;12.32;71.36;102210.53;5031031;28;20052;-76
2023/05/20 05:48:17;;;;;;;5.55;3.10;;;;;;;12.41;70.77;102214.78;5031640;28;20100;-75
2023/05/20 05:50:44;;;;;;;5.13;3.13;;;;;;;12.49;71.03;102206.88;5031904;28;20141;-75
2023/05/20 05:53:10;;;;;;;5.95;3.10;;;;;;;12.56;70.70;102212.00;5029464;28;20381;-75
2023/05/20 05:55:35;;;;;;;6.03;3.00;;;;;;;12.63;70.47;102204.09;5029722;28;20017;-75
2023/05/20 05:58:00;;;;;;;6.63;3.35;;;;;;;12.69;69.88;102201.38;5029840;28;20024;-75
2023/05/20 06:00:26;;;;;;;7.03;2.85;;;;;;;12.75;69.35;102202.16;5030810;28;20025;-75
2023/05/20 06:02:51;;;;;;;6.90;2.65;;;;;;;12.82;69.20;102202.94;5030757;28;20414;-76
2023/05/20 06:05:16;;;;;;;5.13;2.80;;;;;;;12.89;69.17;102198.53;5029512;28;20021;-75
2023/05/20 06:07:42;;;;;;;5.38;2.83;;;;;;;12.95;67.82;102208.03;5031107;28;20030;-76
2023/05/20 06:10:08;;;;;;;5.82;2.97;;;;;;;13.01;68.84;102200.09;5031320;28;20429;-75
2023/05/20 06:12:33;;;;;;;5.43;2.65;;;;;;;13.07;68.12;102202.63;5030328;28;20017;-76
2023/05/20 06:14:58;;;;;;;5.90;2.80;;;;;;;13.15;67.03;102199.91;5028685;28;20113;-75
2023/05/20 06:17:24;;;;;;;5.30;2.78;;;;;;;13.21;68.36;102200.66;5029986;28;20048;-75
2023/05/20 06:19:49;;;;;;;6.47;2.78;;;;;;;13.29;67.38;102202.31;5031027;28;20477;-75
2023/05/20 06:22:14;;;;;;;6.15;2.75;;;;;;;13.34;66.43;102200.47;5030415;28;20503;-75
2023/05/20 06:24:40;;;;;;;4.78;3.13;;;;;;;13.38;65.94;102186.47;5030317;28;20168;-75
2023/05/20 06:27:05;;;;;;;4.20;2.50;;;;;;;13.44;67.71;102188.16;5031393;28;20384;-75
2023/05/20 06:29:30;;;;;;;6.72;3.00;;;;;;;13.50;67.32;102185.44;5029805;28;20044;-75
2023/05/20 06:31:56;;;;;;;7.40;3.22;;;;;;;13.56;65.44;102179.25;5029371;28;20388;-75
2023/05/20 06:34:21;;;;;;;4.80;3.08;;;;;;;13.62;66.29;102187.00;5030665;28;20065;-75
2023/05/20 06:36:46;;;;;;;7.03;3.20;;;;;;;13.68;67.30;102179.03;5030523;28;20021;-75
2023/05/20 06:39:12;;;;;;;4.32;2.63;;;;;;;13.75;65.92;102175.44;5029321;28;20469;-75
2023/05/20 06:41:40;;;;;;;5.47;2.90;;;;;;;13.80;66.68;102184.06;5027339;28;20025;-75
2023/05/20 06:44:06;;;;;;;4.75;2.85;;;;;;;13.89;66.32;102174.31;5029026;28;20037;-76
2023/05/20 06:46:32;;;;;;;5.25;2.80;;;;;;;13.95;66.16;102169.84;5031143;28;20492;-75
2023/05/20 06:48:58;;;;;;;4.20;2.60;;;;;;;14.02;65.98;102170.59;5031046;28;20072;-75
2023/05/20 06:51:23;;;;;;;5.57;2.45;;;;;;;14.08;64.82;102173.09;5025977;28;20519;-76
2023/05/20 06:53:48;;;;;;;3.88;2.60;;;;;;;14.15;66.35;102167.75;5024619;28;20029;-76
2023/05/20 06:56:14;;;;;;;4.50;2.63;;;;;;;14.21;66.39;102159.75;5024759;28;20511;-76
2023/05/20 06:58:39;;;;;;;3.13;2.50;;;;;;;14.28;64.70;102161.38;5024688;28;20036;-76
2023/05/20 07:01:05;;;;;;;4.78;2.70;;;;;;;14.33;63.47;102150.81;5025092;28;20029;-76
2023/05/20 07:03:30;;;;;;;4.55;2.20;;;;;;;14.39;64.90;102155.91;5022585;28;20312;-77
2023/05/20 07:05:56;;;;;;;5.03;2.60;;;;;;;14.45;64.77;102160.16;5024141;28;20029;-76
2023/05/20 07:08:21;;;;;;;4.32;2.50;;;;;;;14.49;63.24;102156.59;5025820;28;20563;-77
2023/05/20 07:10:46;;;;;;;4.35;2.53;;;;;;;14.51;62.40;102158.28;5026877;28;20029;-77
2023/05/20 07:13:11;;;;;;;4.18;2.60;;;;;;;14.55;63.60;102159.06;5027639;28;20033;-77
2023/05/20 07:15:37;;;;;;;4.10;2.28;;;;;;;14.58;62.20;102164.25;5025021;28;20033;-76
2023/05/20 07:18:02;;;;;;;4.55;2.50;;;;;;;14.63;63.00;102158.91;5027782;28;20025;-76
2023/05/20 07:20:27;;;;;;;5.68;2.78;;;;;;;14.66;61.62;102159.72;5027962;28;21432;-77
2023/05/20 07:22:53;;;;;;;4.97;2.72;;;;;;;14.71;62.12;102154.41;5026963;28;20457;-76
2023/05/20 07:25:18;;;;;;;4.47;2.50;;;;;;;14.77;62.37;102161.25;5025067;28;20504;-76
2023/05/20 07:27:43;;;;;;;4.35;2.33;;;;;;;14.80;60.92;102155.97;5028425;28;20128;-75
2023/05/20 07:30:09;;;;;;;4.45;2.85;;;;;;;14.80;61.20;102151.56;5029168;28;20887;-77
2023/05/20 07:32:35;;;;;;;4.70;2.70;;;;;;;14.83;61.73;102146.25;5028353;28;20528;-76
2023/05/20 07:35:00;;;;;;;3.88;2.13;;;;;;;14.88;62.83;102154.00;5026790;28;20425;-76
2023/05/20 07:37:25;;;;;;;4.50;2.30;;;;;;;14.94;62.81;102150.41;5029892;28;20029;-77
2023/05/20 07:39:51;;;;;;;5.15;2.40;;;;;;;14.98;61.97;102150.28;5028064;28;20037;-76
2023/05/20 07:42:16;;;;;;;5.50;2.58;;;;;;;15.00;61.80;102143.28;5025297;28;20120;-77
2023/05/20 07:44:41;;;;;;;5.57;2.35;;;;;;;15.03;61.70;102132.69;5027214;28;20472;-77
2023/05/20 07:47:06;;;;;;;4.25;2.38;;;;;;;15.08;60.91;102134.34;5026725;28;20040;-76
2023/05/20 07:49:32;;;;;;;3.30;2.15;;;;;;;15.11;61.13;102139.50;5025484;28;20025;-77
2023/05/20 07:51:57;;;;;;;4.20;2.40;;;;;;;15.15;60.53;102130.69;5027295;28;20073;-76
2023/05/20 07:54:22;;;;;;;3.35;2.10;;;;;;;15.20;60.78;102134.03;5027063;28;20030;-76
2023/05/20 07:56:48;;;;;;;3.33;2.13;;;;;;;15.21;59.87;102133.13;5027198;28;20037;-76
2023/05/20 07:59:13;;;;;;;4.38;2.30;;;;;;;15.22;60.32;102140.09;5028042;28;20108;-76
2023/05/20 08:01:40;;;;;;;5.47;2.40;;;;;;;15.24;59.45;102135.69;5027330;28;20052;-76
2023/05/20 08:04:06;;;;;;;4.57;2.40;;;;;;;15.28;59.23;102133.88;5024036;28;20033;-76
2023/05/20 08:06:31;;;;;;;5.90;2.28;;;;;;;15.32;60.12;102125.00;5025585;28;20055;-76
2023/05/20 08:08:56;;;;;;;3.85;2.40;;;;;;;15.34;60.53;102128.47;5024642;28;20492;-76
2023/05/20 08:11:22;;;;;;;4.70;2.22;;;;;;;15.37;58.82;102125.75;5025241;28;20511;-76
2023/05/20 08:13:47;;;;;;;2.85;1.95;;;;;;;15.41;60.32;102116.06;5022994;28;20025;-76
2023/05/20 08:16:13;;;;;;;4.35;2.08;;;;;;;15.45;59.58;102126.44;5024983;28;20083;-75
2023/05/20 08:18:38;;;;;;;4.32;2.10;;;;;;;15.48;59.92;102112.38;5023509;28;20040;-76
2023/05/20 08:21:08;;;;;;;4.65;2.15;;;;;;;15.51;59.01;102114.94;5025822;28;20060;-76
2023/05/20 08:23:34;;;;;;;3.25;1.88;;;;;;;15.52;59.04;102119.28;5024264;28;20040;-77
2023/05/20 08:26:01;;;;;;;3.38;2.03;;;;;;;15.54;59.36;102122.69;5026257;28;20117;-76
2023/05/20 08:28:27;;;;;;;2.92;1.88;;;;;;;15.58;60.57;102113.84;5027367;28;20029;-75
2023/05/20 08:30:52;;;;;;;3.55;2.00;;;;;;;15.65;59.37;102121.56;5024528;28;20039;-76
2023/05/20 08:33:18;;;;;;;4.93;2.42;;;;;;;15.68;58.72;102113.63;5026185;28;20121;-75
2023/05/20 08:35:44;;;;;;;3.25;2.15;;;;;;;15.69;57.93;102110.09;5025171;28;20388;-76
2023/05/20 08:38:09;;;;;;;3.85;1.83;;;;;;;15.72;58.18;102105.63;5027235;28;20120;-76
2023/05/20 08:40:35;;;;;;;5.28;2.40;;;;;;;15.75;57.22;102102.03;5024204;28;20064;-76
2023/05/20 08:43:00;;;;;;;3.35;2.13;;;;;;;15.79;57.27;102108.94;5022422;28;20049;-76
2023/05/20 08:45:27;;;;;;;3.35;1.90;;;;;;;15.82;58.13;102095.75;5024904;28;20029;-76
2023/05/20 08:47:53;;;;;;;3.42;2.00;;;;;;;15.88;57.14;102094.72;5025294;28;20534;-76
2023/05/20 08:50:18;;;;;;;5.35;2.42;;;;;;;15.92;57.82;102099.84;5028371;28;20022;-76
2023/05/20 08:52:48;;;;;;;2.45;1.88;;;;;;;15.98;57.12;102100.59;5024469;28;20099;-76
2023/05/20 08:55:36;;;;;;;2.53;1.80;;;;;;;16.01;56.69;102090.00;5026701;28;20545;-76
2023/05/20 08:58:02;;;;;;;3.92;2.10;;;;;;;16.02;55.50;102095.19;5025799;28;20041;-76
2023/05/20 09:00:28;;;;;;;3.42;1.90;;;;;;;16.06;55.54;102091.59;5024643;28;20025;-76
2023/05/20 09:02:54;;;;;;;3.28;2.03;;;;;;;16.10;55.75;102089.72;5021226;28;20034;-77
2023/05/20 09:05:20;;;;;;;3.05;2.05;;;;;;;16.13;55.75;102092.25;5021403;28;20068;-76
2023/05/20 09:07:45;;;;;;;4.03;2.13;;;;;;;16.16;56.05;102080.81;5022423;28;20562;-76
2023/05/20 09:10:11;;;;;;;3.78;2.30;;;;;;;16.17;55.02;102080.78;5026044;28;20517;-76
2023/05/20 09:12:39;;;;;;;4.53;2.20;;;;;;;16.23;56.61;102080.56;5020741;28;20033;-76
2023/05/20 09:15:05;;;;;;;2.45;1.70;;;;;;;16.28;57.00;102077.84;5020850;28;20386;-76
2023/05/20 09:17:31;;;;;;;3.05;1.95;;;;;;;16.33;55.70;102075.06;5022029;28;20039;-77
2023/05/20 09:19:56;;;;;;;3.90;1.92;;;;;;;16.36;59.16;102080.22;5025566;28;20420;-77
2023/05/20 09:22:22;;;;;;;3.45;2.25;;;;;;;16.43;56.90;102073.88;5021935;28;20702;-76
2023/05/20 09:24:48;;;;;;;3.70;1.88;;;;;;;16.47;57.37;102080.75;5018821;28;20030;-76
2023/05/20 09:27:14;;;;;;;4.38;1.98;;;;;;;16.51;56.18;102076.25;5021519;28;20029;-76
2023/05/20 09:29:39;;;;;;;2.63;2.05;;;;;;;16.53;56.39;102077.94;5018251;28;20129;-76
2023/05/20 09:32:05;;;;;;;3.65;2.13;;;;;;;16.51;55.26;102073.63;5018865;28;20025;-76
2023/05/20 09:34:31;;;;;;;3.80;2.22;;;;;;;16.49;55.44;102072.81;5018372;28;20045;-77
2023/05/20 09:36:58;;;;;;;4.82;2.20;;;;;;;16.44;55.27;102070.34;5019974;28;20685;-77
2023/05/20 09:39:29;;;;;;;2.83;1.90;;;;;;;16.45;54.73;102066.81;5019298;28;20057;-76
2023/05/20 09:42:00;;;;;;;4.05;2.00;;;;;;;16.52;56.34;102072.72;5019298;28;20515;-76
2023/05/20 09:44:27;;;;;;;4.40;2.20;;;;;;;16.55;55.21;102067.38;5018466;28;20096;-76
2023/05/20 09:46:55;;;;;;;4.72;1.92;;;;;;;16.49;56.54;102071.06;5019922;28;20053;-77
2023/05/20 09:49:22;;;;;;;4.82;2.00;;;;;;;16.53;56.23;102071.81;5017850;28;20080;-76
2023/05/20 09:51:49;;;;;;;4.22;2.10;;;;;;;16.59;54.99;102068.13;5014697;28;20073;-76
2023/05/20 09:54:18;;;;;;;3.33;1.77;;;;;;;16.60;54.45;102067.22;5017583;28;20028;-76
2023/05/20 09:56:45;;;;;;;4.72;1.75;;;;;;;16.63;53.80;102057.50;5024380;28;20549;-76
2023/05/20 09:59:10;;;;;;;3.08;2.10;;;;;;;16.67;55.62;102066.13;5025297;28;20025;-77
2023/05/20 10:01:36;;;;;;;3.00;1.98;;;;;;;16.73;54.39;102073.84;5022053;28;20491;-76
2023/05/20 10:04:05;;;;;;;3.65;1.70;;;;;;;16.75;56.31;102066.72;5021113;28;20125;-77
2023/05/20 10:06:39;;;;;;;3.42;1.90;;;;;;;16.80;55.63;102067.47;5023440;28;20052;-77
2023/05/20 10:09:36;;;;;;;4.97;1.90;;;;;;;16.84;54.39;102055.94;5025693;28;20036;-77
2023/05/20 10:12:21;;;;;;;3.70;1.73;;;;;;;16.88;55.13;102045.34;5024525;28;20033;-77
2023/05/20 10:15:23;;;;;;;3.85;2.00;;;;;;;16.84;53.88;102042.81;5024685;28;20041;-76
2023/05/20 10:18:26;;;;;;;4.28;1.67;;;;;;;16.81;54.82;102050.78;5025359;28;20025;-77
2023/05/20 10:20:51;;;;;;;2.97;1.58;;;;;;;16.84;53.78;102040.16;5024403;28;20543;-77
2023/05/20 10:23:26;;;;;;;3.92;1.88;;;;;;;16.91;52.90;102045.25;5024838;28;20037;-77
2023/05/20 10:25:53;;;;;;;3.95;1.95;;;;;;;16.95;52.38;102038.97;5025610;28;20036;-77
2023/05/20 10:28:34;;;;;;;2.97;2.10;;;;;;;17.02;54.33;102043.13;5024776;28;20481;-77
2023/05/20 10:31:00;;;;;;;3.22;1.70;;;;;;;17.07;54.56;102038.59;5020890;28;20484;-77
2023/05/20 10:33:29;;;;;;;2.78;1.90;;;;;;;17.12;53.74;102027.91;5023282;28;20044;-77
2023/05/20 10:36:01;;;;;;;3.92;1.60;;;;;;;17.20;52.89;102020.59;5023078;28;20115;-77
2023/05/20 10:38:26;;;;;;;3.30;1.88;;;;;;;17.33;53.88;102030.69;5024326;28;20037;-77
2023/05/20 10:40:52;;;;;;;3.75;2.08;;;;;;;17.39;53.40;102028.72;5024652;28;20334;-77
2023/05/20 10:43:27;;;;;;;3.03;1.60;;;;;;;17.39;54.39;102031.34;5023033;28;20047;-78
2023/05/20 10:45:57;;;;;;;2.20;1.70;;;;;;;17.42;53.36;102017.22;5024730;28;20044;-77
2023/05/20 10:48:24;;;;;;;5.53;2.00;;;;;;;17.43;53.60;102011.03;5024880;28;20030;-78
2023/05/20 10:50:53;;;;;;;2.25;1.50;;;;;;;17.47;54.83;102011.78;5024473;28;20907;-77
2023/05/20 10:53:21;;;;;;;2.33;1.60;;;;;;;17.50;54.27;102019.56;5022116;28;20029;-77
2023/05/20 10:55:51;;;;;;;2.15;1.52;;;;;;;17.45;54.30;102015.31;5024646;28;20151;-77
2023/05/20 10:58:20;;;;;;;3.63;1.73;;;;;;;17.42;54.78;102020.69;5024076;28;20114;-77
2023/05/20 11:00:47;;;;;;;3.05;1.60;;;;;;;17.51;54.12;102011.59;5023844;28;20091;-77
2023/05/20 11:03:13;;;;;;;2.30;1.70;;;;;;;17.65;52.72;102021.63;5020964;28;20239;-77
2023/05/20 11:05:39;;;;;;;2.25;1.50;;;;;;;17.73;52.41;102013.44;5021447;28;20029;-77
2023/05/20 11:08:07;;;;;;;3.20;1.73;;;;;;;17.79;51.51;102007.97;5019852;28;20089;-77
2023/05/20 11:10:33;;;;;;;3.05;1.60;;;;;;;17.81;51.98;101995.63;5020754;28;20061;-77
2023/05/20 11:13:00;;;;;;;3.65;1.58;;;;;;;17.84;53.57;101992.88;5020934;28;20029;-77
2023/05/20 11:15:26;;;;;;;3.58;1.90;;;;;;;17.87;52.48;102003.25;5019504;28;20148;-77
2023/05/20 11:17:53;;;;;;;3.58;1.60;;;;;;;17.94;51.78;102001.25;5018544;28;20040;-77
2023/05/20 11:20:18;;;;;;;3.97;1.58;;;;;;;18.00;52.59;102001.06;5019078;28;20052;-77